»·PEaware :: N900KP KMHV-KSNA

N900KP :: KMHV-KSNA

FLIGHT INFORMATION

Flight Status: Arrived
Operator: Privately registered:
United States
More flights under this callsign
Pilot: Giorgi S. (28323)
Aircraft: CIRRUS SR-20
(SR20)
More flights by this aircraft type
Origin: KMHV Mojave
United States
Destination: KSNA John Wayne-Orange Co
United States
More flights between these airports :: More routes between these airports
Route: JERID5 JERID V197 PMD V201 BERRI V459 SLI
File this flight plan on PilotEdge
Remarks: TEC route EDWP2
Altitude:
(Current/Filed)
9,000ft
Speed:
(Current/Filed)
150kts
Departed: 24-Jun-23 09:47 AM
Arrived: 24-Jun-23 10:46 AM
Distance/Time
Traveled:
84nm/0:59
Distance/Time
To Go:
Arrived

Flight Plot

Page will automatically refresh every two minutes.

Flight plan parsing failed; only flown route is shown


Map Options




Map Legend


Flown Route
Filed Route
Departure Airport
Arrival Airport
Navaid (VOR, NDB)
Fix

Horizontal Profiles

Position Reports

Time Latitude Longitude Heading Altitude Ground
Speed
24-Jun-23 09:38 35.056591 -118.150072 359 2744ft 0kts
24-Jun-23 09:39 35.056591 -118.150072 359 2744ft 0kts
24-Jun-23 09:40 35.056591 -118.150072 359 2744ft 0kts
24-Jun-23 09:40 35.056591 -118.150072 359 2744ft 0kts
24-Jun-23 09:41 35.056591 -118.150072 359 2744ft 0kts
24-Jun-23 09:43 35.056591 -118.150072 359 2744ft 0kts
24-Jun-23 09:44 35.057611 -118.149326 88 2744ft 10kts
24-Jun-23 09:44 35.057571 -118.144107 90 2733ft 22kts
24-Jun-23 09:45 35.058221 -118.142623 355 2730ft 0kts
24-Jun-23 09:46 35.059219 -118.144547 272 2737ft 43kts
24-Jun-23 09:48 35.058719 -118.178440 272 3241ft 110kts
24-Jun-23 09:48 35.043879 -118.202392 220 3845ft 113kts
24-Jun-23 09:49 35.019851 -118.227352 218 4614ft 112kts
24-Jun-23 09:50 34.996770 -118.251257 217 5388ft 106kts
24-Jun-23 09:51 34.973854 -118.274629 217 6053ft 109kts
24-Jun-23 09:52 34.950066 -118.299162 217 6688ft 112kts
24-Jun-23 09:53 34.926296 -118.323598 218 7327ft 112kts
24-Jun-23 09:54 34.902321 -118.348218 217 7950ft 109kts
24-Jun-23 09:55 34.878356 -118.371270 189 8505ft 111kts
24-Jun-23 09:56 34.851914 -118.350020 132 8934ft 118kts
24-Jun-23 09:57 34.827478 -118.317415 136 8921ft 146kts
24-Jun-23 09:58 34.799099 -118.281900 131 8965ft 146kts
24-Jun-23 09:59 34.771439 -118.245862 131 9001ft 147kts
24-Jun-23 10:00 34.743271 -118.209155 131 9000ft 149kts
24-Jun-23 10:01 34.714924 -118.172234 131 8999ft 149kts
24-Jun-23 10:02 34.686546 -118.135331 131 8999ft 149kts
24-Jun-23 10:03 34.658097 -118.098369 131 8999ft 149kts
24-Jun-23 10:04 34.626251 -118.068832 189 8979ft 150kts
24-Jun-23 10:05 34.587447 -118.087098 202 8999ft 149kts
24-Jun-23 10:06 34.549207 -118.107264 202 8999ft 149kts
24-Jun-23 10:07 34.510993 -118.127500 202 8999ft 149kts
24-Jun-23 10:08 34.472692 -118.147822 202 9000ft 150kts
24-Jun-23 10:09 34.434242 -118.168214 202 9000ft 150kts
24-Jun-23 10:10 34.395945 -118.188453 202 8999ft 150kts
24-Jun-23 10:11 34.357546 -118.208737 202 9000ft 150kts
24-Jun-23 10:12 34.319167 -118.228994 202 8999ft 150kts
24-Jun-23 10:13 34.280889 -118.249182 202 8999ft 150kts
24-Jun-23 10:14 34.242624 -118.269289 201 8997ft 149kts
24-Jun-23 10:15 34.204363 -118.289347 200 8998ft 148kts
24-Jun-23 10:16 34.165972 -118.274361 153 8998ft 148kts
24-Jun-23 10:17 34.128257 -118.253254 153 9001ft 150kts
24-Jun-23 10:18 34.090719 -118.231517 152 8997ft 149kts
24-Jun-23 10:19 34.053278 -118.209930 152 8998ft 148kts
24-Jun-23 10:20 34.016054 -118.188445 151 8996ft 147kts
24-Jun-23 10:21 33.978959 -118.167065 152 8996ft 147kts
24-Jun-23 10:22 33.941762 -118.145668 152 8995ft 148kts
24-Jun-23 10:23 33.900790 -118.144859 194 8649ft 165kts
24-Jun-23 10:24 33.853921 -118.161321 195 7667ft 175kts
24-Jun-23 10:25 33.806639 -118.175567 194 6989ft 164kts
24-Jun-23 10:26 33.768329 -118.155974 108 6391ft 165kts
24-Jun-23 10:27 33.784249 -118.105397 61 5665ft 170kts
24-Jun-23 10:28 33.805754 -118.054962 64 5004ft 162kts
24-Jun-23 10:29 33.823432 -118.009722 64 4992ft 143kts
24-Jun-23 10:30 33.841159 -117.969501 59 4996ft 134kts
24-Jun-23 10:31 33.860159 -117.931213 59 4996ft 132kts
24-Jun-23 10:32 33.878377 -117.893225 58 5021ft 129kts
24-Jun-23 10:33 33.895479 -117.854555 61 5002ft 130kts
24-Jun-23 10:34 33.912252 -117.815686 59 5016ft 129kts
24-Jun-23 10:35 33.929099 -117.776796 62 4989ft 131kts
24-Jun-23 10:36 33.906576 -117.754479 185 4109ft 137kts
24-Jun-23 10:37 33.869812 -117.756848 183 3258ft 127kts
24-Jun-23 10:38 33.836514 -117.767118 208 3046ft 126kts
24-Jun-23 10:39 33.808455 -117.784871 207 2916ft 102kts
24-Jun-23 10:40 33.783204 -117.800894 207 2356ft 102kts
24-Jun-23 10:41 33.757837 -117.817172 210 1798ft 103kts
24-Jun-23 10:42 33.732622 -117.833003 206 1226ft 100kts
24-Jun-23 10:43 33.707973 -117.848554 207 662ft 98kts
24-Jun-23 10:44 33.684297 -117.863400 208 123ft 83kts
24-Jun-23 10:45 33.675971 -117.869746 296 48ft 0kts
24-Jun-23 10:46 33.675965 -117.871142 214 49ft 0kts
24-Jun-23 10:47 33.675965 -117.871142 214 49ft 0kts

Navigation Log

Ident Type
Flight plan parsing failed, navigation log unavailable